Terminal Aerodrome Forecast
Issued by NWS Louisville, KY

Home | Current Version | Previous Version | Text Only | Print | Product List | Glossary On
Versions: 1 2 3 4 5 6 7 8 9 10 11 12 13 14 15 16 17 18
000
FTUS43 KLMK 231100
TAFBWG
TAF
KBWG 231125Z 2312/2412 04006KT P6SM SCT025 BKN100
     FM231400 04005KT 5SM -RASN BR BKN025
     FM231700 01004KT 4SM -RA BR BKN015
      TEMPO 2403/2406 -RASN
     FM240600 31004KT P6SM SCT030 BKN120=

USA.gov is the U.S. government's official web portal to all federal, state and local government web resources and services.